SYRK1: Arkansas R at Syracuse, KS

                                SHEF ID:       SYRK1     ARKANSAS R AT SYRACUSE, KS
STATION TYPE:
Regulating: Stage = 10.00, Flow = 2000

PRECIP STAGE RIV-FLOW BAT-LOAD
in ft cfs volt
Ccp-Rev Ccp-Rev Ccp-Rev Ccp-Rev
(America/Chicago)
07/25 00:00 0.00 5.84 329 12.65
07/25 01:00 0.00 5.83 327 12.65
07/25 02:00 0.00 5.84 329 12.65
07/25 03:00 0.00 5.89 339 12.60
07/25 04:00 0.00 5.91 343 12.60
07/25 05:00 0.00 5.94 349 12.54
07/25 06:00 0.00 5.88 337 12.54
07/25 07:00 0.00 5.82 325 12.54
07/25 08:00 0.00 5.84 329 12.48
07/25 09:00 0.00 5.82 325 12.60
07/25 10:00 0.00 5.84 329 13.00
07/25 11:00 0.00 5.85 331 13.48
07/25 12:00 0.00 5.82 325 13.48
07/25 13:00 0.00 5.82 325 13.48
07/25 14:00 0.00 5.80 321 13.42
07/25 15:00 0.00 5.78 317 13.36
07/25 16:00 0.00 5.80 321 13.36
07/25 17:00 0.00 5.81 323 13.30
07/25 18:00 0.00 5.89 339 13.24
07/25 19:00 0.00 5.77 315 13.24
07/25 20:00 0.00 5.74 310 12.95
07/25 21:00 0.00 5.75 311 12.77
07/25 22:00 0.00 5.79 319 12.71
07/25 23:00 ---- ---- ---- ----
Data processed at Fri 26Jul2024 04:28 GMT

Parsing this webpage?

Checkout our new Data API! CWMSDataAPI (CDA)

Timeseries IDs (TSIDs)

TSIDs used from left to right in the data table
SYRA.Precip-Inc.Total.1Hour.1Hour.Ccp-Rev
SYRA.Stage.Inst.1Hour.0.Ccp-Rev
SYRA.Flow.Inst.1Hour.0.Ccp-Rev
SYRA.Volt-Battery Load.Inst.1Hour.0.Ccp-Rev

                            

All information presented herein is the property of the government of the United States of America and may be revised or deleted at any time without prior notice. Dissemination of this information without the expressed written consent of the Public Affairs Office, Tulsa District U.S. Army Corps of Engineers is strictly prohibited. These data are gathered electronically and, as presented, have NOT undergone any form of quality control. These data are NOT guaranteed to be valid or correct.